PAGY/SGY METAR and TAF weather

Enter ICAO airport designator
Station Type Date Time Source
PAGY METAR 2019/06/19 00:53 UTC NOAA

PAGY 190053Z AUTO 20019KT 10SM OVC065 14/07 A2995 RMK AO2 SLP144 T01390067 TSNO


Station Type Date Time Source
PAGY Decoded METAR 2019/06/19 00:53 UTC NOAA

SKAGWAY AIRPORT, AK, United States (PAGY) 59-28N 135-19W 5M
Jun 18, 2019 - 08:53 PM EDT / 2019.06.19 0053 UTC
Wind: from the SSW (200 degrees) at 22 MPH (19 KT):0
Visibility: 10 mile(s):0
Sky conditions: overcast
Temperature: 57.0 F (13.9 C)
Dew Point: 44.1 F (6.7 C)
Relative Humidity: 61%
Pressure (altimeter): 29.95 in. Hg (1014 hPa)
ob: PAGY 190053Z AUTO 20019KT 10SM OVC065 14/07 A2995 RMK AO2 SLP144 T01390067 TSNO
cycle: 1

Station Type Date Time Source
PAGY TAF 2019/06/18 21:48 UTC NOAA

TAF
AMD PAGY 182045Z 1821/1918 20020G28KT P6SM SCT050 OVC080
FM190500 21012G20KT 6SM -SHRA OVC050
FM191000 21008KT 6SM -SHRA SCT025 OVC050
AMD LTD TO CLD VIS AND WIND

Example: see airport list